Pagina principale
METAR-TAF:

METAR-TAF

Aeroporti :

Emmen, Svizzera

latitudine: 47-05-32N, longitudine: 8-18-16E, altezza: 426 m

Osservazione

Il bollettino è stato emesso 21 minuti fa, alle 16:50 UTC
Vento 2 kt da direzioni variabili
Temperature 21°C
Umidità 43%
Pressione 1016 hPa
Visibilità 10 km o più

METAR: LSME 131650Z AUTO VRB02KT 9999NDV NCD 21/08 Q1016 RMK

Ora: 19:11 (17:11 UTC)


TAF: mancante

Osservazioni e previsioni meteorologiche di più di 4000 aeroporti (messaggi METAR e TAF).

Le stazioni disponibili sono rappresentate dai dischi gialli e rossi sulla carta.

Puntare il mouse per vedere il nome della stazione.

Clicca sopra per visualizzare le osservazioni e previsioni meteorologiche.

Per cambiare la mappa : fare clic sui pulsanti verdi con una croce nera per ingrandire, il pulsante verde con un trattino per diminuire, o sulla freccia verde per le mappe adiacenti.


METAR-TAF: